createdAt,value
2023-01-19T00:01:52.353Z,99187.13
2023-01-19T00:04:23.065Z,99187.70
2023-01-19T00:06:54.141Z,99185.00
2023-01-19T00:09:25.124Z,99189.89
2023-01-19T00:11:56.121Z,99194.19
2023-01-19T00:14:26.737Z,99188.23
2023-01-19T00:16:57.896Z,99186.84
2023-01-19T00:19:28.815Z,99194.73
2023-01-19T00:21:59.555Z,99191.20
2023-01-19T00:24:30.791Z,99195.16
2023-01-19T00:27:03.948Z,99195.35
2023-01-19T00:29:35.338Z,99203.52
2023-01-19T00:32:07.783Z,99210.80
2023-01-19T00:34:39.663Z,99209.56
2023-01-19T00:37:11.072Z,99207.31
2023-01-19T00:39:42.079Z,99208.77
2023-01-19T00:42:32.089Z,99211.91
2023-01-19T00:45:02.843Z,99214.80
2023-01-19T00:47:33.555Z,99212.98
2023-01-19T00:50:04.667Z,99216.27
2023-01-19T00:52:35.448Z,99220.94
2023-01-19T00:55:07.888Z,99225.46
2023-01-19T00:57:39.540Z,99227.80
2023-01-19T01:00:14.999Z,99232.52
2023-01-19T01:02:47.281Z,99231.28
2023-01-19T01:05:18.502Z,99235.53
2023-01-19T01:07:49.860Z,99237.35
2023-01-19T01:10:22.436Z,99238.61
2023-01-19T01:12:57.841Z,99235.23
2023-01-19T01:15:30.826Z,99234.43
2023-01-19T01:18:01.536Z,99236.42
2023-01-19T01:20:34.949Z,99239.23
2023-01-19T01:23:06.104Z,99245.30
2023-01-19T01:25:37.965Z,99246.61
2023-01-19T01:28:09.713Z,99252.63
2023-01-19T01:30:41.088Z,99253.92
2023-01-19T01:33:13.455Z,99258.54
2023-01-19T01:35:44.097Z,99259.17
2023-01-19T01:38:14.802Z,99250.92
2023-01-19T01:40:46.106Z,99259.61
2023-01-19T01:43:19.112Z,99259.38
2023-01-19T01:45:50.665Z,99252.67
2023-01-19T01:48:27.025Z,99252.60
2023-01-19T01:51:21.455Z,99257.71
2023-01-19T01:53:56.889Z,99262.48
2023-01-19T01:56:33.460Z,99266.29
2023-01-19T01:59:07.789Z,99267.66
2023-01-19T02:01:57.712Z,99270.92
2023-01-19T02:04:29.347Z,99274.82
2023-01-19T02:07:19.882Z,99274.81
2023-01-19T02:10:08.569Z,99276.23
2023-01-19T02:12:56.976Z,99275.06
2023-01-19T02:15:27.730Z,99271.89
2023-01-19T02:17:59.182Z,99273.16
2023-01-19T02:20:32.887Z,99270.93
2023-01-19T02:23:08.357Z,99274.53
2023-01-19T02:25:40.579Z,99276.15
2023-01-19T02:28:12.109Z,99277.59
2023-01-19T02:30:44.548Z,99282.52
2023-01-19T02:33:15.288Z,99286.31
2023-01-19T02:35:47.886Z,99293.28
2023-01-19T02:38:21.881Z,99294.98
2023-01-19T02:40:54.576Z,99289.27
2023-01-19T02:43:27.987Z,99301.48
2023-01-19T02:45:57.286Z,99294.05
2023-01-19T02:48:28.257Z,99299.90
2023-01-19T02:51:04.379Z,99298.29
2023-01-19T02:54:24.318Z,99298.52
2023-01-19T02:57:10.647Z,99299.03
2023-01-19T03:00:00.198Z,99302.06
2023-01-19T03:02:42.403Z,99301.44
2023-01-19T03:05:33.591Z,99301.89
2023-01-19T03:08:16.255Z,99307.67
2023-01-19T03:10:57.912Z,99305.71
2023-01-19T03:13:35.405Z,99306.02
2023-01-19T03:16:12.956Z,99305.30
2023-01-19T03:18:47.385Z,99307.27
2023-01-19T03:21:20.268Z,99307.23
2023-01-19T03:23:53.582Z,99315.58
2023-01-19T03:26:26.115Z,99319.32
2023-01-19T03:29:00.787Z,99325.89
2023-01-19T03:31:34.245Z,99332.18
2023-01-19T03:34:07.737Z,99338.33
2023-01-19T03:36:38.283Z,99341.59
2023-01-19T03:39:10.832Z,99343.56
2023-01-19T03:41:44.245Z,99348.67
2023-01-19T03:44:13.705Z,99344.91
2023-01-19T03:46:45.573Z,99335.20
2023-01-19T03:49:16.916Z,99344.14
2023-01-19T03:51:48.401Z,99343.62
2023-01-19T03:54:19.164Z,99342.29
2023-01-19T03:56:49.783Z,99342.64
2023-01-19T03:59:21.814Z,99345.16
2023-01-19T04:01:52.731Z,99343.61
2023-01-19T04:04:23.694Z,99341.38
2023-01-19T04:06:54.390Z,99347.54
2023-01-19T04:09:25.754Z,99351.10
2023-01-19T04:11:57.209Z,99355.55
2023-01-19T04:14:27.857Z,99359.87
2023-01-19T04:16:58.762Z,99362.70
2023-01-19T04:19:29.417Z,99364.71
2023-01-19T04:22:00.609Z,99357.82
2023-01-19T04:24:31.333Z,99348.48
2023-01-19T04:27:01.998Z,99347.60
2023-01-19T04:29:32.613Z,99347.55
2023-01-19T04:32:03.244Z,99347.80
2023-01-19T04:34:33.972Z,99344.34
2023-01-19T04:37:04.782Z,99345.05
2023-01-19T04:39:35.396Z,99347.05
2023-01-19T04:42:06.335Z,99348.70
2023-01-19T04:44:36.995Z,99346.91
2023-01-19T04:47:07.844Z,99346.46
2023-01-19T04:49:38.677Z,99345.52
2023-01-19T04:52:09.819Z,99351.57
2023-01-19T04:54:40.648Z,99353.30
2023-01-19T04:57:11.285Z,99353.54
2023-01-19T04:59:42.432Z,99357.08
2023-01-19T05:02:13.080Z,99356.12
2023-01-19T05:04:43.811Z,99352.89
2023-01-19T05:07:14.438Z,99349.02
2023-01-19T05:09:45.229Z,99345.95
2023-01-19T05:12:15.938Z,99345.20
2023-01-19T05:14:46.991Z,99345.02
2023-01-19T05:17:17.689Z,99350.57
2023-01-19T05:19:49.025Z,99351.71
2023-01-19T05:22:19.876Z,99349.17
2023-01-19T05:24:50.696Z,99351.03
2023-01-19T05:27:21.508Z,99350.39
2023-01-19T05:29:52.233Z,99347.88
2023-01-19T05:32:22.867Z,99345.05
2023-01-19T05:34:53.518Z,99346.04
2023-01-19T05:37:24.309Z,99346.11
2023-01-19T05:39:55.441Z,99339.45
2023-01-19T05:42:26.216Z,99343.12
2023-01-19T05:44:56.979Z,99342.57
2023-01-19T05:47:30.015Z,99336.31
2023-01-19T05:50:00.780Z,99334.89
2023-01-19T05:52:31.671Z,99339.02
2023-01-19T05:55:02.346Z,99335.29
2023-01-19T05:57:33.314Z,99339.65
2023-01-19T06:00:04.285Z,99343.64
2023-01-19T06:02:54.998Z,99344.16
2023-01-19T06:05:25.765Z,99347.87
2023-01-19T06:07:58.745Z,99350.10
2023-01-19T06:10:29.715Z,99351.41
2023-01-19T06:13:00.658Z,99352.60
2023-01-19T06:15:31.472Z,99352.78
2023-01-19T06:18:02.279Z,99349.96
2023-01-19T06:20:33.127Z,99346.08
2023-01-19T06:23:04.171Z,99356.91
2023-01-19T06:25:35.034Z,99362.96
2023-01-19T06:28:06.108Z,99368.41
2023-01-19T06:30:36.890Z,99373.84
2023-01-19T06:33:07.610Z,99377.17
2023-01-19T06:35:38.484Z,99383.70
2023-01-19T06:38:09.188Z,99381.98
2023-01-19T06:40:39.869Z,99384.59
2023-01-19T06:43:11.190Z,99392.29
2023-01-19T06:45:42.577Z,99396.62
2023-01-19T06:48:14.702Z,99394.36
2023-01-19T06:50:47.856Z,99396.70
2023-01-19T06:53:20.762Z,99392.02
2023-01-19T06:55:51.590Z,99400.20
2023-01-19T06:58:22.832Z,99401.41
2023-01-19T07:00:53.722Z,99395.91
2023-01-19T07:03:25.847Z,99402.06
2023-01-19T07:05:57.794Z,99407.55
2023-01-19T07:08:28.640Z,99410.90
2023-01-19T07:11:24.921Z,99414.27
2023-01-19T07:13:56.786Z,99408.89
2023-01-19T07:16:27.787Z,99413.74
2023-01-19T07:18:58.513Z,99415.33
2023-01-19T07:21:29.509Z,99416.19
2023-01-19T07:24:00.272Z,99420.29
2023-01-19T07:26:31.163Z,99421.36
2023-01-19T07:29:01.961Z,99422.52
2023-01-19T07:31:32.676Z,99422.15
2023-01-19T07:34:03.581Z,99423.03
2023-01-19T07:36:35.840Z,99424.70
2023-01-19T07:39:06.623Z,99427.30
2023-01-19T07:41:37.432Z,99433.59
2023-01-19T07:44:10.922Z,99429.19
2023-01-19T07:46:42.102Z,99433.08
2023-01-19T07:49:13.457Z,99434.19
2023-01-19T07:51:44.174Z,99430.77
2023-01-19T07:54:14.917Z,99432.20
2023-01-19T07:56:45.613Z,99429.02
2023-01-19T07:59:16.912Z,99428.81
2023-01-19T08:01:50.791Z,99431.80
2023-01-19T08:04:21.805Z,99430.98
2023-01-19T08:06:52.611Z,99431.90
2023-01-19T08:09:24.351Z,99438.40
2023-01-19T08:11:55.206Z,99443.45
2023-01-19T08:14:26.027Z,99442.70
2023-01-19T08:16:59.808Z,99439.63
2023-01-19T08:19:30.819Z,99446.23
2023-01-19T08:22:01.492Z,99444.73
2023-01-19T08:24:32.508Z,99452.27
2023-01-19T08:27:03.938Z,99449.56
2023-01-19T08:29:34.597Z,99452.63
2023-01-19T08:32:06.799Z,99451.00
2023-01-19T08:34:37.596Z,99455.55
2023-01-19T08:37:08.250Z,99454.20
2023-01-19T08:39:38.998Z,99452.65
2023-01-19T08:42:09.896Z,99446.89
2023-01-19T08:44:49.721Z,99455.80
2023-01-19T08:47:27.904Z,99459.34
2023-01-19T08:49:58.599Z,99460.45
2023-01-19T08:52:29.399Z,99458.75
2023-01-19T08:55:01.836Z,99452.71
2023-01-19T08:57:32.649Z,99451.09
2023-01-19T09:00:04.679Z,99450.14
2023-01-19T09:02:35.872Z,99451.83
2023-01-19T09:05:07.971Z,99447.20
2023-01-19T09:07:38.758Z,99446.65
2023-01-19T09:10:11.825Z,99447.18
2023-01-19T09:12:43.451Z,99439.92
2023-01-19T09:15:15.189Z,99441.91
2023-01-19T09:17:46.016Z,99442.70
2023-01-19T09:20:17.122Z,99446.38
2023-01-19T09:22:48.696Z,99447.77
2023-01-19T09:25:19.717Z,99441.89
2023-01-19T09:27:50.317Z,99442.65
2023-01-19T09:30:21.956Z,99443.10
2023-01-19T09:32:52.611Z,99444.42
2023-01-19T09:35:23.369Z,99450.90
2023-01-19T09:37:54.099Z,99451.63
2023-01-19T09:40:24.992Z,99447.20
2023-01-19T09:42:59.377Z,99445.38
2023-01-19T09:45:36.752Z,99445.89
2023-01-19T09:48:17.183Z,99442.23
2023-01-19T09:50:48.573Z,99442.43
2023-01-19T09:53:29.079Z,99444.64
2023-01-19T09:55:59.830Z,99439.91
2023-01-19T09:58:31.482Z,99440.63
2023-01-19T10:01:14.204Z,99436.52
2023-01-19T10:03:44.951Z,99431.42
2023-01-19T10:06:17.417Z,99433.11
2023-01-19T10:08:54.239Z,99433.42
2023-01-19T10:11:51.686Z,99431.54
2023-01-19T10:14:30.639Z,99431.72
2023-01-19T10:17:12.091Z,99429.40
2023-01-19T10:19:47.003Z,99430.16
2023-01-19T10:22:23.937Z,99428.57
2023-01-19T10:24:57.549Z,99418.59
2023-01-19T10:27:31.494Z,99419.59
2023-01-19T10:30:04.043Z,99418.85
2023-01-19T10:32:36.905Z,99420.86
2023-01-19T10:35:21.961Z,99420.00
2023-01-19T10:37:56.366Z,99417.16
2023-01-19T10:40:33.078Z,99418.65
2023-01-19T10:43:24.164Z,99416.20
2023-01-19T10:45:53.239Z,99417.77
2023-01-19T10:48:24.988Z,99416.80
2023-01-19T10:51:04.707Z,99418.02
2023-01-19T10:53:35.750Z,99415.12
2023-01-19T10:56:22.333Z,99415.23
2023-01-19T10:58:53.389Z,99413.52
2023-01-19T11:01:26.564Z,99411.08
2023-01-19T11:04:05.816Z,99410.96
2023-01-19T11:06:36.788Z,99409.70
2023-01-19T11:09:18.615Z,99410.84
2023-01-19T11:11:53.307Z,99410.63
2023-01-19T11:14:25.839Z,99413.23
2023-01-19T11:16:58.920Z,99410.44
2023-01-19T11:19:32.482Z,99409.05
2023-01-19T11:22:21.867Z,99411.30
2023-01-19T11:24:53.110Z,99404.39
2023-01-19T11:27:24.427Z,99406.91
2023-01-19T11:30:05.260Z,99405.61
2023-01-19T11:32:37.242Z,99406.05
2023-01-19T11:35:41.000Z,99402.15
2023-01-19T11:38:19.966Z,99408.45
2023-01-19T11:40:56.223Z,99404.31
2023-01-19T11:43:39.834Z,99408.77
2023-01-19T11:46:20.067Z,99402.80
2023-01-19T11:48:57.493Z,99408.72
2023-01-19T11:51:33.335Z,99404.77
2023-01-19T11:54:14.417Z,99400.45
2023-01-19T11:56:47.685Z,99400.73
2023-01-19T11:59:19.364Z,99402.48
2023-01-19T12:01:56.597Z,99410.56
2023-01-19T12:04:32.123Z,99408.11
2023-01-19T12:07:10.439Z,99407.83
2023-01-19T12:09:46.272Z,99407.44
2023-01-19T12:12:25.255Z,99408.54
2023-01-19T12:14:57.501Z,99409.98
2023-01-19T12:17:30.861Z,99409.91
2023-01-19T12:20:08.149Z,99403.86
2023-01-19T12:22:49.555Z,99402.36
2023-01-19T12:25:24.867Z,99401.70
2023-01-19T12:27:56.698Z,99400.91
2023-01-19T12:30:30.023Z,99404.15
2023-01-19T12:33:23.999Z,99402.06
2023-01-19T12:36:00.884Z,99406.04
2023-01-19T12:38:47.576Z,99401.84
2023-01-19T12:41:31.838Z,99404.86
2023-01-19T12:44:30.833Z,99402.89
2023-01-19T12:47:20.305Z,99397.48
2023-01-19T12:49:56.282Z,99394.41
2023-01-19T12:52:34.813Z,99392.71
2023-01-19T12:55:24.147Z,99392.39
2023-01-19T12:58:00.680Z,99389.23
2023-01-19T13:00:38.041Z,99392.90
2023-01-19T13:03:46.520Z,99393.23
2023-01-19T13:06:17.254Z,99394.89
2023-01-19T13:09:02.216Z,99392.76
2023-01-19T13:11:34.679Z,99392.67
2023-01-19T13:14:35.182Z,99389.70
2023-01-19T13:17:28.170Z,99386.23
2023-01-19T13:20:05.401Z,99383.77
2023-01-19T13:23:20.801Z,99377.80
2023-01-19T13:25:52.239Z,99376.20
2023-01-19T13:28:30.183Z,99375.23
2023-01-19T13:31:05.303Z,99379.96
2023-01-19T13:33:46.711Z,99380.79
2023-01-19T13:36:23.594Z,99382.76
2023-01-19T13:38:55.499Z,99388.88
2023-01-19T13:41:28.704Z,99385.82
2023-01-19T13:44:04.271Z,99391.52
2023-01-19T13:46:35.534Z,99389.11
2023-01-19T13:49:16.567Z,99394.48
2023-01-19T13:51:49.572Z,99391.00
2023-01-19T13:54:21.447Z,99393.80
2023-01-19T13:56:52.208Z,99390.59
2023-01-19T13:59:23.380Z,99392.80
2023-01-19T14:01:54.457Z,99396.66
2023-01-19T14:04:31.069Z,99396.55
2023-01-19T14:07:04.653Z,99393.17
2023-01-19T14:09:35.368Z,99395.94
2023-01-19T14:12:15.929Z,99395.62
2023-01-19T14:14:48.347Z,99398.77
2023-01-19T14:17:35.219Z,99398.45
2023-01-19T14:20:07.673Z,99403.86
2023-01-19T14:22:44.039Z,99407.61
2023-01-19T14:25:32.658Z,99412.51
2023-01-19T14:28:35.414Z,99412.04
2023-01-19T14:31:23.881Z,99408.18
2023-01-19T14:33:58.376Z,99409.59
2023-01-19T14:36:36.294Z,99406.55
2023-01-19T14:39:15.269Z,99410.89
2023-01-19T14:41:52.242Z,99411.75
2023-01-19T14:44:33.207Z,99412.41
2023-01-19T14:47:04.724Z,99409.40
2023-01-19T14:49:38.447Z,99415.71
2023-01-19T14:52:21.826Z,99413.97
2023-01-19T14:54:53.202Z,99414.06
2023-01-19T14:57:23.948Z,99416.64
2023-01-19T14:59:55.851Z,99417.67
2023-01-19T15:02:26.529Z,99413.00
2023-01-19T15:04:58.033Z,99419.97
2023-01-19T15:07:29.111Z,99420.16
2023-01-19T15:10:00.597Z,99427.16
2023-01-19T15:12:31.809Z,99432.52
2023-01-19T15:15:03.963Z,99429.96
2023-01-19T15:17:35.245Z,99431.84
2023-01-19T15:20:14.641Z,99439.12
2023-01-19T15:22:46.089Z,99440.02
2023-01-19T15:25:19.497Z,99441.10
2023-01-19T15:27:50.808Z,99444.18
2023-01-19T15:30:24.860Z,99445.42
2023-01-19T15:32:55.674Z,99449.83
2023-01-19T15:35:26.590Z,99454.64
2023-01-19T15:37:58.292Z,99460.14
2023-01-19T15:40:29.167Z,99457.29
2023-01-19T15:42:59.763Z,99461.06
2023-01-19T15:45:39.228Z,99464.92
2023-01-19T15:48:12.397Z,99462.65
2023-01-19T15:50:42.315Z,99465.60
2023-01-19T15:53:16.350Z,99466.02
2023-01-19T15:55:50.452Z,99471.33
2023-01-19T15:58:23.461Z,99470.02
2023-01-19T16:00:57.749Z,99472.23
2023-01-19T16:03:28.942Z,99473.67
2023-01-19T16:06:02.503Z,99474.50
2023-01-19T16:08:33.231Z,99466.39
2023-01-19T16:11:08.864Z,99475.82
2023-01-19T16:13:40.282Z,99478.69
2023-01-19T16:16:17.313Z,99480.72
2023-01-19T16:18:48.724Z,99482.22
2023-01-19T16:21:19.813Z,99483.77
2023-01-19T16:23:50.522Z,99484.96
2023-01-19T16:26:30.804Z,99488.14
2023-01-19T16:29:07.770Z,99489.10
2023-01-19T16:31:39.688Z,99496.86
2023-01-19T16:34:11.275Z,99499.98
2023-01-19T16:36:43.337Z,99503.34
2023-01-19T16:39:15.833Z,99505.23
2023-01-19T16:41:47.604Z,99508.14
2023-01-19T16:44:18.845Z,99505.66
2023-01-19T16:46:50.769Z,99505.10
2023-01-19T16:49:23.308Z,99505.85
2023-01-19T16:51:55.475Z,99511.64
2023-01-19T16:54:27.752Z,99518.14
2023-01-19T16:56:59.231Z,99519.11
2023-01-19T16:59:30.214Z,99520.07
2023-01-19T17:02:01.275Z,99515.61
2023-01-19T17:04:32.264Z,99519.09
2023-01-19T17:07:03.342Z,99520.52
2023-01-19T17:09:34.791Z,99523.28
2023-01-19T17:12:07.457Z,99520.78
2023-01-19T17:14:39.978Z,99521.73
2023-01-19T17:17:10.651Z,99523.52
2023-01-19T17:19:41.822Z,99523.44
2023-01-19T17:22:14.345Z,99525.32
2023-01-19T17:24:45.309Z,99526.60
2023-01-19T17:27:22.661Z,99528.31
2023-01-19T17:29:53.671Z,99527.40
2023-01-19T17:32:24.872Z,99527.81
2023-01-19T17:34:56.409Z,99527.84
2023-01-19T17:37:27.230Z,99528.81
2023-01-19T17:40:03.365Z,99532.02
2023-01-19T17:42:34.043Z,99535.74
2023-01-19T17:45:05.196Z,99536.90
2023-01-19T17:47:35.811Z,99542.85
2023-01-19T17:50:07.739Z,99541.67
2023-01-19T17:52:38.546Z,99543.11
2023-01-19T17:55:10.933Z,99542.23
2023-01-19T17:57:41.864Z,99549.77
2023-01-19T18:00:15.054Z,99553.86
2023-01-19T18:02:45.921Z,99550.31
2023-01-19T18:05:16.699Z,99554.31
2023-01-19T18:07:47.479Z,99552.86
2023-01-19T18:10:19.082Z,99553.57
2023-01-19T18:12:49.888Z,99545.86
2023-01-19T18:15:20.853Z,99544.57
2023-01-19T18:17:51.560Z,99547.61
2023-01-19T18:20:22.562Z,99546.98
2023-01-19T18:22:54.092Z,99547.36
2023-01-19T18:25:24.740Z,99551.55
2023-01-19T18:27:56.217Z,99553.55
2023-01-19T18:30:28.078Z,99554.42
2023-01-19T18:32:58.837Z,99561.36
2023-01-19T18:35:30.120Z,99559.23
2023-01-19T18:38:00.917Z,99552.98
2023-01-19T18:40:31.824Z,99557.36
2023-01-19T18:43:02.496Z,99557.29
2023-01-19T18:45:33.247Z,99563.38
2023-01-19T18:48:05.218Z,99565.95
2023-01-19T18:50:36.489Z,99573.83
2023-01-19T18:53:07.641Z,99570.20
2023-01-19T18:55:40.843Z,99572.40
2023-01-19T18:58:18.211Z,99575.38
2023-01-19T19:00:49.562Z,99567.05
2023-01-19T19:03:20.313Z,99574.11
2023-01-19T19:05:51.256Z,99575.27
2023-01-19T19:08:22.236Z,99573.33
2023-01-19T19:10:54.095Z,99574.86
2023-01-19T19:13:25.461Z,99572.79
2023-01-19T19:16:03.218Z,99577.23
2023-01-19T19:18:37.874Z,99588.17
2023-01-19T19:21:10.760Z,99589.16
2023-01-19T19:23:41.675Z,99591.91
2023-01-19T19:26:13.724Z,99591.95
2023-01-19T19:28:45.801Z,99588.03
2023-01-19T19:31:20.831Z,99588.14
2023-01-19T19:33:52.039Z,99586.66
2023-01-19T19:36:24.598Z,99594.45
2023-01-19T19:38:55.947Z,99594.01
2023-01-19T19:41:28.398Z,99595.55
2023-01-19T19:43:59.489Z,99597.13
2023-01-19T19:46:31.004Z,99599.38
2023-01-19T19:49:02.067Z,99597.10
2023-01-19T19:51:32.917Z,99598.71
2023-01-19T19:54:04.569Z,99601.95
2023-01-19T19:56:35.435Z,99606.84
2023-01-19T19:59:07.030Z,99606.65
2023-01-19T20:01:38.626Z,99608.98
2023-01-19T20:04:12.065Z,99609.77
2023-01-19T20:06:44.967Z,99613.34
2023-01-19T20:09:16.943Z,99611.71
2023-01-19T20:11:49.115Z,99610.52
2023-01-19T20:14:21.200Z,99619.04
2023-01-19T20:16:53.126Z,99617.98
2023-01-19T20:19:24.167Z,99621.23
2023-01-19T20:21:54.941Z,99623.42
2023-01-19T20:24:25.669Z,99625.48
2023-01-19T20:26:57.307Z,99627.57
2023-01-19T20:29:28.174Z,99629.33
2023-01-19T20:31:59.160Z,99628.73
2023-01-19T20:34:33.735Z,99630.84
2023-01-19T20:37:06.189Z,99631.64
2023-01-19T20:39:39.049Z,99634.49
2023-01-19T20:42:11.754Z,99635.38
2023-01-19T20:44:43.337Z,99639.70
2023-01-19T20:47:14.132Z,99641.08
2023-01-19T20:49:45.515Z,99640.11
2023-01-19T20:52:16.742Z,99643.52
2023-01-19T20:54:47.484Z,99642.45
2023-01-19T20:57:18.283Z,99642.34
2023-01-19T20:59:48.887Z,99639.96
2023-01-19T21:02:20.579Z,99641.08
2023-01-19T21:04:53.316Z,99645.45
2023-01-19T21:07:24.033Z,99646.42
2023-01-19T21:09:57.281Z,99650.11
2023-01-19T21:12:28.123Z,99653.10
2023-01-19T21:14:58.821Z,99662.06
2023-01-19T21:17:30.899Z,99662.09
2023-01-19T21:20:01.842Z,99666.14
2023-01-19T21:22:32.602Z,99668.52
2023-01-19T21:25:03.321Z,99669.75
2023-01-19T21:27:34.162Z,99669.94
2023-01-19T21:30:07.250Z,99678.33
2023-01-19T21:32:37.965Z,99677.30
2023-01-19T21:35:10.683Z,99677.61
2023-01-19T21:37:41.729Z,99681.52
2023-01-19T21:40:14.985Z,99682.49
2023-01-19T21:42:45.931Z,99681.84
2023-01-19T21:45:16.948Z,99683.23
2023-01-19T21:47:47.872Z,99677.98
2023-01-19T21:50:20.088Z,99680.95
2023-01-19T21:52:50.751Z,99687.35
2023-01-19T21:55:21.573Z,99689.55
2023-01-19T21:57:54.164Z,99690.41
2023-01-19T22:00:25.948Z,99689.05
2023-01-19T22:03:04.056Z,99695.43
2023-01-19T22:05:37.569Z,99696.90
2023-01-19T22:08:09.527Z,99699.59
2023-01-19T22:10:40.435Z,99703.36
2023-01-19T22:13:11.134Z,99704.40
2023-01-19T22:15:41.792Z,99704.31
2023-01-19T22:18:13.048Z,99707.62
2023-01-19T22:20:43.703Z,99711.83
2023-01-19T22:23:14.300Z,99710.41
2023-01-19T22:25:44.897Z,99711.50
2023-01-19T22:28:15.555Z,99713.13
2023-01-19T22:30:46.210Z,99715.08
2023-01-19T22:33:17.016Z,99713.44
2023-01-19T22:35:47.815Z,99715.61
2023-01-19T22:38:18.462Z,99716.30
2023-01-19T22:40:49.019Z,99717.92
2023-01-19T22:43:19.635Z,99720.61
2023-01-19T22:45:50.232Z,99718.81
2023-01-19T22:48:22.347Z,99715.01
2023-01-19T22:50:58.247Z,99715.16
2023-01-19T22:53:29.021Z,99717.41
2023-01-19T22:55:59.656Z,99716.52
2023-01-19T22:58:31.262Z,99718.84
2023-01-19T23:01:07.634Z,99717.65
2023-01-19T23:03:39.209Z,99711.13
2023-01-19T23:06:12.723Z,99706.92
2023-01-19T23:08:44.213Z,99712.33
2023-01-19T23:11:17.090Z,99710.98
2023-01-19T23:13:48.567Z,99714.59
2023-01-19T23:16:20.006Z,99715.06
2023-01-19T23:18:53.381Z,99711.38
2023-01-19T23:21:26.072Z,99715.30
2023-01-19T23:23:58.885Z,99719.27
2023-01-19T23:26:31.364Z,99718.42
2023-01-19T23:29:02.887Z,99717.05
2023-01-19T23:31:35.083Z,99715.09
2023-01-19T23:34:08.256Z,99713.08
2023-01-19T23:36:38.452Z,99713.40
2023-01-19T23:39:14.958Z,99717.21
2023-01-19T23:41:46.060Z,99716.84
2023-01-19T23:44:18.177Z,99716.52
2023-01-19T23:46:49.213Z,99715.23
2023-01-19T23:49:19.995Z,99711.87
2023-01-19T23:51:50.692Z,99713.70
2023-01-19T23:54:21.369Z,99713.02
2023-01-19T23:56:52.347Z,99714.83
2023-01-19T23:59:23.018Z,99713.34
